Time;durP1;ratioP1;P1;durP2;ratioP2;P2;SDS_P1;SDS_P2;PMS_P1;PMS_P2;Temp;Humidity;BMP_temperature;BMP_pressure;BME280_temperature;BME280_humidity;BME280_pressure;Samples;Min_cycle;Max_cycle;Signal;HPM_P1;HPM_P2
2023/05/05 00:00:50;;;;;;;;;;;;;;;10.63;100.00;101203.88;105910;1252;62774;-51
2023/05/05 00:03:19;;;;;;;;;;;;;;;10.57;100.00;101189.41;105933;1257;61356;-51
2023/05/05 00:05:49;;;;;;;;;;;;;;;10.52;100.00;101172.54;105889;1257;75227;-52
2023/05/05 00:08:16;;;;;;;;;;;;;;;10.45;100.00;101162.73;105863;1257;66074;-52
2023/05/05 00:10:44;;;;;;;;;;;;;;;10.44;100.00;101178.09;105880;1254;74003;-51
2023/05/05 00:13:11;;;;;;;;;;;;;;;10.39;100.00;101205.55;105915;1257;62528;-51
2023/05/05 00:15:40;;;;;;;;;;;;;;;10.35;100.00;101245.76;105814;1257;61648;-51
2023/05/05 00:18:07;;;;;;;;;;;;;;;10.31;100.00;101290.80;105870;1255;74941;-51
2023/05/05 00:20:35;;;;;;;;;;;;;;;10.24;100.00;101323.78;105701;1257;253077;-52
2023/05/05 00:25:13;;;;;;;7.10;2.70;;;;;;;10.14;100.00;101374.00;103045;1292;600247;-51
2023/05/05 00:27:40;;;;;;;9.60;2.50;;;;;;;10.07;100.00;101391.77;105121;1263;64952;-51
2023/05/05 00:30:09;;;;;;;10.10;2.70;;;;;;;10.04;100.00;101416.79;105034;1264;63015;-51
2023/05/05 00:32:36;;;;;;;8.40;3.00;;;;;;;10.04;100.00;101438.35;105101;1265;74492;-52
2023/05/05 00:35:05;;;;;;;17.60;3.10;;;;;;;10.04;100.00;101459.39;104831;1270;65873;-51
2023/05/05 00:37:32;;;;;;;19.30;3.30;;;;;;;10.05;100.00;101472.66;105055;1270;75145;-51
2023/05/05 00:39:59;;;;;;;16.10;2.90;;;;;;;10.05;100.00;101478.70;104866;1267;399782;-51
2023/05/05 00:42:26;;;;;;;7.30;2.80;;;;;;;10.04;100.00;101483.02;105259;1257;62610;-51
2023/05/05 00:44:53;;;;;;;8.50;2.40;;;;;;;10.05;100.00;101488.00;105337;1258;74387;-52
2023/05/05 00:47:20;;;;;;;3.10;2.00;;;;;;;10.03;100.00;101483.36;105389;1258;65492;-52
2023/05/05 00:49:47;;;;;;;9.60;2.90;;;;;;;10.01;100.00;101480.08;105368;1257;75151;-52
2023/05/05 00:52:14;;;;;;;10.00;3.60;;;;;;;9.98;100.00;101475.06;105369;1257;62901;-51
2023/05/05 00:54:41;;;;;;;9.40;2.60;;;;;;;9.96;100.00;101468.52;105463;1263;62117;-51
2023/05/05 00:57:08;;;;;;;8.90;2.40;;;;;;;9.97;100.00;101463.16;105374;1263;73801;-52
2023/05/05 00:59:35;;;;;;;5.90;2.90;;;;;;;9.98;100.00;101462.83;105356;1263;67143;-51
2023/05/05 01:02:02;;;;;;;9.30;2.30;;;;;;;9.98;100.00;101457.67;105370;1263;74370;-52
2023/05/05 01:04:29;;;;;;;5.70;2.90;;;;;;;9.98;100.00;101452.32;105391;1261;61478;-52
2023/05/05 01:07:29;;;;;;;12.40;3.50;;;;;;;10.00;100.00;101455.77;105272;1258;60960;-52
2023/05/05 01:10:10;;;;;;;9.90;2.70;;;;;;;10.04;100.00;101456.45;105291;1263;75497;-51
2023/05/05 01:12:46;;;;;;;8.90;2.90;;;;;;;10.09;100.00;101457.48;105338;1260;66972;-51
2023/05/05 01:15:16;;;;;;;8.00;2.70;;;;;;;10.12;100.00;101460.92;105280;1266;74909;-51
2023/05/05 01:17:54;;;;;;;9.80;2.90;;;;;;;10.17;100.00;101460.76;105285;1258;62491;-51
2023/05/05 01:20:44;;;;;;;7.10;2.60;;;;;;;10.23;100.00;101466.27;105315;1258;61704;-51
2023/05/05 01:23:17;;;;;;;5.30;2.50;;;;;;;10.28;100.00;101467.30;105244;1259;75748;-50
2023/05/05 01:26:24;;;;;;;3.40;2.60;;;;;;;10.31;100.00;101470.23;105253;1266;67112;-50
2023/05/05 01:29:29;;;;;;;8.40;3.00;;;;;;;10.36;100.00;101472.98;105210;1266;75183;-50
2023/05/05 01:31:59;;;;;;;9.80;3.60;;;;;;;10.40;100.00;101475.58;105277;1260;63320;-50
2023/05/05 01:34:31;;;;;;;6.50;3.10;;;;;;;10.41;100.00;101475.09;105336;1263;61787;-50
2023/05/05 01:37:07;;;;;;;6.40;2.60;;;;;;;10.44;100.00;101477.14;105314;1264;73782;-50
2023/05/05 01:39:34;;;;;;;13.20;2.50;;;;;;;10.44;100.00;101475.59;105258;1261;66951;-50
2023/05/05 01:42:04;;;;;;;6.10;2.30;;;;;;;10.46;100.00;101477.31;105269;1260;75618;-50
2023/05/05 01:44:32;;;;;;;6.10;3.00;;;;;;;10.48;100.00;101479.03;105257;1264;62889;-49
2023/05/05 01:46:59;;;;;;;4.30;2.40;;;;;;;10.51;100.00;101476.97;105296;1260;61510;-50
2023/05/05 01:49:26;;;;;;;6.40;2.20;;;;;;;10.53;100.00;101476.62;105248;1261;75492;-50
2023/05/05 01:51:55;;;;;;;5.80;2.70;;;;;;;10.55;100.00;101473.34;105205;1260;67049;-52
2023/05/05 01:54:23;;;;;;;4.10;3.30;;;;;;;10.58;100.00;101467.11;105290;1264;74388;-50
2023/05/05 01:56:50;;;;;;;7.60;2.80;;;;;;;10.59;100.00;101464.17;105337;1259;63898;-51
2023/05/05 01:59:17;;;;;;;8.10;2.80;;;;;;;10.62;100.00;101462.80;105315;1264;62668;-51
2023/05/05 02:01:45;;;;;;;4.10;2.30;;;;;;;10.65;100.00;101461.23;105226;1258;74558;-52
2023/05/05 02:04:13;;;;;;;4.50;2.70;;;;;;;10.65;100.00;101458.46;105466;1257;65378;-52
2023/05/05 02:06:40;;;;;;;3.90;3.00;;;;;;;10.63;100.00;101457.78;105530;1258;74866;-55
2023/05/05 02:09:08;;;;;;;7.60;2.50;;;;;;;10.63;100.00;101452.27;105515;1258;63701;-51
2023/05/05 02:11:35;;;;;;;2.70;2.30;;;;;;;10.62;100.00;101451.39;105528;1263;63069;-51
2023/05/05 02:14:02;;;;;;;13.30;2.60;;;;;;;10.61;100.00;101450.88;105554;1261;75509;-50
2023/05/05 02:16:30;;;;;;;7.60;2.70;;;;;;;10.58;100.00;101449.16;105569;1257;66386;-51
2023/05/05 02:18:58;;;;;;;5.30;3.00;;;;;;;10.57;100.00;101451.93;105539;1261;73158;-51
2023/05/05 02:21:25;;;;;;;6.50;2.50;;;;;;;10.56;100.00;101450.55;105621;1256;63769;-51
2023/05/05 02:23:52;;;;;;;9.20;2.50;;;;;;;10.55;100.00;101451.77;105515;1263;61808;-52
2023/05/05 02:26:20;;;;;;;5.80;2.20;;;;;;;10.53;100.00;101447.45;105610;1260;74462;-51
2023/05/05 02:28:51;;;;;;;9.70;3.00;;;;;;;10.53;100.00;101445.55;105620;1263;66614;-51
2023/05/05 02:31:20;;;;;;;5.20;2.80;;;;;;;10.54;100.00;101440.55;105659;1260;75202;-51
2023/05/05 02:33:47;;;;;;;5.00;2.80;;;;;;;10.55;100.00;101437.61;105619;1257;63464;-51
2023/05/05 02:36:22;;;;;;;2.70;2.40;;;;;;;10.56;100.00;101441.73;105656;1260;63089;-51
2023/05/05 02:39:00;;;;;;;6.90;2.60;;;;;;;10.58;100.00;101438.11;105609;1255;74693;-51
2023/05/05 02:41:28;;;;;;;10.10;2.50;;;;;;;10.58;100.00;101435.87;105653;1255;67461;-51
2023/05/05 02:43:56;;;;;;;8.20;3.20;;;;;;;10.59;100.00;101433.09;105561;1257;73099;-51
2023/05/05 02:46:26;;;;;;;8.50;2.80;;;;;;;10.59;100.00;101439.66;105550;1257;64457;-51
2023/05/05 02:48:54;;;;;;;9.90;2.70;;;;;;;10.63;100.00;101435.69;105635;1260;61919;-51
2023/05/05 02:51:21;;;;;;;8.10;3.00;;;;;;;10.67;100.00;101432.05;105564;1257;74377;-51
2023/05/05 02:53:48;;;;;;;9.20;3.00;;;;;;;10.70;100.00;101428.58;105562;1257;66382;-51
2023/05/05 02:56:21;;;;;;;24.50;3.50;;;;;;;10.73;100.00;101428.05;105545;1262;75063;-51
2023/05/05 02:59:23;;;;;;;14.90;3.30;;;;;;;10.77;100.00;101434.95;105632;1257;63043;-50
2023/05/05 03:01:59;;;;;;;6.30;2.40;;;;;;;10.85;100.00;101436.48;105655;1256;62227;-51
2023/05/05 03:04:36;;;;;;;10.30;3.00;;;;;;;10.93;100.00;101437.99;105633;1260;74812;-51
2023/05/05 03:07:08;;;;;;;6.60;2.80;;;;;;;11.00;100.00;101433.48;105500;1257;66163;-51
2023/05/05 03:09:58;;;;;;;7.60;3.00;;;;;;;11.04;100.00;101437.59;105572;1260;75167;-51
2023/05/05 03:12:27;;;;;;;11.90;2.40;;;;;;;11.11;100.00;101437.92;105552;1255;64484;-51
2023/05/05 03:15:09;;;;;;;9.50;3.30;;;;;;;11.16;100.00;101438.23;105653;1258;63091;-51
2023/05/05 03:17:36;;;;;;;9.40;2.60;;;;;;;11.21;100.00;101441.31;105556;1258;74327;-52
2023/05/05 03:20:05;;;;;;;13.10;2.60;;;;;;;11.25;100.00;101446.48;105626;1263;66262;-51
2023/05/05 03:22:37;;;;;;;9.60;2.60;;;;;;;11.28;100.00;101452.52;105602;1257;75314;-49
2023/05/05 03:25:07;;;;;;;9.00;2.80;;;;;;;11.31;100.00;101451.98;105483;1257;61316;-50
2023/05/05 03:27:34;;;;;;;6.90;2.70;;;;;;;11.36;100.00;101458.69;105730;1260;62644;-50
2023/05/05 03:30:02;;;;;;;3.30;2.70;;;;;;;11.40;100.00;101461.61;105664;1259;75689;-50
2023/05/05 03:32:30;;;;;;;20.30;2.70;;;;;;;11.45;100.00;101467.62;105610;1254;67450;-50
2023/05/05 03:34:57;;;;;;;17.50;2.90;;;;;;;11.52;100.00;101467.59;105705;1254;75634;-50
2023/05/05 03:37:28;;;;;;;5.60;2.70;;;;;;;11.61;100.00;101465.11;105659;1254;62859;-49
2023/05/05 03:39:56;;;;;;;11.30;3.10;;;;;;;11.68;100.00;101470.95;105722;1256;62781;-51
2023/05/05 03:42:23;;;;;;;10.40;2.90;;;;;;;11.74;100.00;101473.14;105662;1254;75481;-50
2023/05/05 03:44:52;;;;;;;7.80;2.90;;;;;;;11.85;100.00;101478.95;105698;1253;65918;-50
2023/05/05 03:47:19;;;;;;;7.50;2.80;;;;;;;11.94;100.00;101476.96;105707;1257;74116;-51
2023/05/05 03:49:46;;;;;;;4.60;2.50;;;;;;;12.04;100.00;101483.67;105672;1258;60982;-50
2023/05/05 03:52:13;;;;;;;5.90;2.90;;;;;;;12.13;100.00;101486.55;105674;1259;61756;-51
2023/05/05 03:54:42;;;;;;;5.60;2.50;;;;;;;12.23;100.00;101491.65;109464;1253;74997;-52
2023/05/05 03:57:09;;;;;;;4.60;2.40;;;;;;;12.35;100.00;101489.98;109465;1253;66798;-52
2023/05/05 03:59:35;;;;;;;5.80;2.40;;;;;;;12.56;100.00;101487.70;109495;1252;74759;-52
2023/05/05 04:02:03;;;;;;;6.50;2.40;;;;;;;12.84;100.00;101480.13;109373;1256;62464;-53
2023/05/05 04:04:30;;;;;;;4.80;2.30;;;;;;;13.20;100.00;101459.77;109444;1253;62105;-53
2023/05/05 04:09:59;;;;;;;5.50;3.00;;;;;;;14.07;100.00;101251.43;103767;1285;600121;-54
2023/05/05 04:12:26;;;;;;;13.20;4.40;;;;;;;14.41;100.00;101043.40;105012;1264;61343;-49
2023/05/05 04:14:53;;;;;;;13.70;3.70;;;;;;;14.70;100.00;100854.39;105550;1263;62954;-53
2023/05/05 04:17:21;;;;;;;5.90;3.20;;;;;;;14.95;100.00;100710.69;105537;1262;74903;-50
2023/05/05 04:19:48;;;;;;;13.00;3.40;;;;;;;15.11;100.00;100665.31;105535;1257;66392;-51
2023/05/05 04:22:16;;;;;;;6.40;3.20;;;;;;;15.15;100.00;100697.35;105610;1257;75452;-52
2023/05/05 04:24:43;;;;;;;12.30;3.30;;;;;;;15.14;100.00;100771.59;105312;1254;396736;-52
2023/05/05 04:27:10;;;;;;;6.40;2.80;;;;;;;15.16;100.00;100823.15;105647;1254;62860;-51
2023/05/05 04:29:38;;;;;;;10.80;3.20;;;;;;;15.18;100.00;100860.11;105660;1260;73456;-51
2023/05/05 04:32:06;;;;;;;5.10;2.70;;;;;;;15.21;100.00;100866.11;105655;1260;67516;-51
2023/05/05 04:34:33;;;;;;;5.60;3.50;;;;;;;15.18;100.00;100877.34;105646;1254;75135;-51
2023/05/05 04:37:00;;;;;;;6.70;3.10;;;;;;;15.11;100.00;100888.13;105650;1258;61798;-51
2023/05/05 04:39:30;;;;;;;11.60;3.30;;;;;;;15.09;100.00;100881.59;105703;1259;61964;-51
2023/05/05 04:41:57;;;;;;;15.40;3.50;;;;;;;15.24;100.00;100868.97;105671;1260;73622;-52
2023/05/05 04:44:24;;;;;;;7.60;3.00;;;;;;;15.48;100.00;100868.38;105598;1255;66100;-51
2023/05/05 04:46:51;;;;;;;6.80;2.60;;;;;;;15.81;100.00;100867.32;105652;1261;73996;-52
2023/05/05 04:49:19;;;;;;;11.20;2.90;;;;;;;16.13;100.00;100892.73;105666;1254;63222;-51
2023/05/05 04:51:46;;;;;;;6.20;3.30;;;;;;;16.34;100.00;100915.33;105672;1254;63425;-51
2023/05/05 04:54:13;;;;;;;13.70;3.40;;;;;;;16.49;100.00;100939.85;105646;1260;75408;-52
2023/05/05 04:56:41;;;;;;;8.20;3.10;;;;;;;16.49;100.00;100963.02;105669;1254;67194;-52
2023/05/05 04:59:08;;;;;;;6.70;3.40;;;;;;;16.47;100.00;100977.38;105610;1255;75172;-49
2023/05/05 05:01:35;;;;;;;12.20;4.00;;;;;;;16.48;100.00;100976.13;105635;1257;61542;-52
2023/05/05 05:04:04;;;;;;;14.90;4.10;;;;;;;16.47;100.00;100970.44;105671;1260;62006;-52
2023/05/05 05:06:31;;;;;;;7.10;3.20;;;;;;;16.46;100.00;100959.13;105531;1262;75554;-51
2023/05/05 05:08:59;;;;;;;7.50;3.80;;;;;;;16.44;100.00;100960.42;105435;1258;65534;-52
2023/05/05 05:11:26;;;;;;;8.40;3.60;;;;;;;16.34;100.00;100964.06;105658;1259;74145;-54
2023/05/05 05:13:53;;;;;;;7.70;3.30;;;;;;;16.30;100.00;100958.64;105383;1258;62564;-52
2023/05/05 05:16:20;;;;;;;7.00;2.90;;;;;;;16.18;100.00;100963.39;105462;1261;62657;-52
2023/05/05 05:18:47;;;;;;;10.60;3.70;;;;;;;16.23;100.00;100947.38;105593;1257;75143;-55
2023/05/05 05:21:15;;;;;;;9.10;3.20;;;;;;;16.33;100.00;100935.91;105561;1258;66563;-52
2023/05/05 05:23:42;;;;;;;13.00;3.40;;;;;;;16.51;100.00;100926.06;105585;1258;75464;-54
2023/05/05 05:26:09;;;;;;;8.80;3.40;;;;;;;16.55;100.00;100942.11;105574;1263;60949;-51
2023/05/05 05:28:37;;;;;;;11.40;3.90;;;;;;;16.55;100.00;100953.95;105591;1260;61940;-51
2023/05/05 05:31:04;;;;;;;12.80;3.70;;;;;;;16.56;100.00;100952.67;105572;1257;75280;-51
2023/05/05 05:33:31;;;;;;;9.40;3.40;;;;;;;16.72;100.00;100942.19;105574;1257;67462;-51
2023/05/05 05:35:58;;;;;;;6.10;3.20;;;;;;;16.88;100.00;100949.79;105449;1260;75168;-51
2023/05/05 05:38:25;;;;;;;9.40;3.40;;;;;;;16.88;100.00;100968.98;105570;1257;62223;-51
2023/05/05 05:40:55;;;;;;;10.60;3.90;;;;;;;16.81;100.00;100972.20;105604;1257;61290;-52
2023/05/05 05:43:22;;;;;;;9.90;3.80;;;;;;;16.84;100.00;100959.86;105551;1258;75254;-52
2023/05/05 05:45:49;;;;;;;7.30;4.40;;;;;;;16.92;100.00;100959.41;105565;1256;65893;-52
2023/05/05 05:48:16;;;;;;;11.60;3.70;;;;;;;16.99;100.00;100956.90;105513;1260;74346;-52
2023/05/05 05:50:43;;;;;;;11.40;3.70;;;;;;;17.10;100.00;100961.57;105550;1257;61529;-51
2023/05/05 05:53:11;;;;;;;10.00;2.90;;;;;;;17.13;100.00;100987.45;105572;1261;63034;-52
2023/05/05 05:55:39;;;;;;;11.50;3.60;;;;;;;17.21;100.00;100989.73;105572;1262;75748;-52
2023/05/05 05:58:07;;;;;;;12.00;3.50;;;;;;;17.38;100.00;100988.08;105518;1261;67489;-52
2023/05/05 06:00:35;;;;;;;13.40;2.90;;;;;;;17.59;100.00;100982.36;105533;1258;74937;-52
2023/05/05 06:03:03;;;;;;;7.40;3.20;;;;;;;17.71;100.00;100986.80;105513;1264;62822;-52
2023/05/05 06:05:32;;;;;;;19.40;3.90;;;;;;;17.75;100.00;100996.23;105598;1258;62832;-52
2023/05/05 06:08:00;;;;;;;15.60;3.30;;;;;;;17.77;100.00;101022.33;105593;1258;73160;-51
2023/05/05 06:10:27;;;;;;;10.80;3.50;;;;;;;17.79;100.00;101024.85;105559;1257;67220;-53
2023/05/05 06:13:01;;;;;;;8.00;3.80;;;;;;;17.76;100.00;101036.16;105596;1263;74975;-51
2023/05/05 06:15:29;;;;;;;12.00;4.00;;;;;;;17.76;100.00;101027.27;105571;1256;60858;-51
2023/05/05 06:17:57;;;;;;;21.70;4.20;;;;;;;17.75;100.00;101017.33;105596;1261;63308;-51
2023/05/05 06:20:25;;;;;;;6.60;3.70;;;;;;;17.77;100.00;101017.61;105615;1259;74488;-51
2023/05/05 06:22:52;;;;;;;11.20;4.50;;;;;;;17.84;100.00;101008.97;105592;1262;66800;-51
2023/05/05 06:25:20;;;;;;;9.70;3.50;;;;;;;17.92;100.00;101005.66;105609;1260;75016;-51
2023/05/05 06:27:48;;;;;;;9.10;3.90;;;;;;;18.02;100.00;101007.04;105613;1260;61794;-51
2023/05/05 06:30:15;;;;;;;16.20;4.00;;;;;;;18.09;100.00;101009.75;105621;1255;62510;-50
2023/05/05 06:32:42;;;;;;;9.60;3.40;;;;;;;18.15;100.00;101010.36;105634;1260;74403;-51
2023/05/05 06:35:09;;;;;;;8.40;3.70;;;;;;;18.25;100.00;101012.20;105598;1257;66941;-51
2023/05/05 06:37:36;;;;;;;12.20;3.50;;;;;;;18.33;100.00;101007.88;105600;1258;74190;-51
2023/05/05 06:40:05;;;;;;;15.80;4.00;;;;;;;18.28;100.00;101016.29;105665;1257;61593;-52
2023/05/05 06:42:32;;;;;;;11.80;3.70;;;;;;;18.27;100.00;101015.81;105653;1260;61715;-51
2023/05/05 06:45:03;;;;;;;18.20;4.20;;;;;;;18.23;100.00;101011.63;105683;1261;74536;-51
2023/05/05 06:47:30;;;;;;;15.80;4.20;;;;;;;18.21;100.00;101010.47;105602;1257;65578;-51
2023/05/05 06:49:57;;;;;;;19.70;4.60;;;;;;;18.31;100.00;101002.34;105595;1260;74079;-52
2023/05/05 06:52:24;;;;;;;24.00;4.70;;;;;;;18.44;100.00;101000.79;105614;1258;62884;-51
2023/05/05 06:54:51;;;;;;;21.80;5.10;;;;;;;18.62;100.00;100999.14;105700;1257;60857;-52
2023/05/05 06:57:18;;;;;;;22.90;5.10;;;;;;;18.80;100.00;101002.22;105606;1260;75566;-51
2023/05/05 06:59:45;;;;;;;22.70;5.60;;;;;;;18.88;100.00;101000.27;105629;1256;66352;-51
2023/05/05 07:02:12;;;;;;;13.30;5.10;;;;;;;18.94;100.00;101006.97;105614;1257;73875;-53
2023/05/05 07:04:40;;;;;;;18.50;5.40;;;;;;;19.05;100.00;101012.48;105585;1257;63077;-51
2023/05/05 07:07:07;;;;;;;22.00;6.10;;;;;;;19.21;100.00;101009.31;105592;1257;62484;-51
2023/05/05 07:09:34;;;;;;;25.00;5.20;;;;;;;19.26;100.00;101019.42;105594;1260;74728;-51
2023/05/05 07:12:02;;;;;;;23.90;5.70;;;;;;;19.36;100.00;101020.88;105577;1256;67424;-51
2023/05/05 07:14:29;;;;;;;16.00;6.00;;;;;;;19.49;100.00;101014.48;105675;1260;74852;-52
2023/05/05 07:16:56;;;;;;;15.80;5.70;;;;;;;19.64;100.00;101016.80;105612;1258;61895;-51
2023/05/05 07:19:24;;;;;;;14.50;5.70;;;;;;;19.69;94.74;101010.59;109258;1254;61878;-53
2023/05/05 07:21:51;;;;;;;20.30;5.80;;;;;;;19.61;91.15;101023.20;109195;1254;75147;-53
2023/05/05 07:24:17;;;;;;;22.20;6.00;;;;;;;19.60;90.22;101019.25;109255;1254;66727;-53
2023/05/05 07:26:45;;;;;;;17.80;5.70;;;;;;;19.74;96.63;101035.54;109191;1254;74916;-53
2023/05/05 07:29:12;;;;;;;16.50;5.70;;;;;;;19.98;91.50;101009.55;109244;1254;62297;-53
2023/05/05 07:31:39;;;;;;;30.00;6.30;;;;;;;20.07;87.81;101021.71;109212;1256;61119;-53
2023/05/05 07:34:06;;;;;;;24.40;7.30;;;;;;;20.12;79.66;101003.30;109265;1254;75210;-52
2023/05/05 07:36:33;;;;;;;20.30;7.20;;;;;;;20.09;72.29;100997.30;109233;1254;65351;-53
2023/05/05 07:39:00;;;;;;;24.10;7.40;;;;;;;20.01;73.82;101029.91;109235;1254;74724;-53
2023/05/05 07:41:27;;;;;;;13.40;7.80;;;;;;;20.02;78.27;101046.31;109194;1256;62322;-53
2023/05/05 07:43:54;;;;;;;27.40;8.70;;;;;;;20.11;80.62;101041.52;109197;1254;61637;-53
2023/05/05 07:46:21;;;;;;;26.20;8.80;;;;;;;20.04;87.29;101045.89;109213;1254;74143;-53
2023/05/05 07:48:48;;;;;;;12.00;7.20;;;;;;;19.96;91.62;101042.63;109225;1257;65531;-54
2023/05/05 07:51:15;;;;;;;30.20;7.90;;;;;;;19.99;91.40;101034.73;109232;1254;74796;-52
2023/05/05 07:53:41;;;;;;;11.40;6.90;;;;;;;20.06;81.54;101011.63;109196;1256;62060;-53
2023/05/05 07:56:08;;;;;;;25.50;7.40;;;;;;;20.06;82.75;101033.37;109246;1254;61225;-50
2023/05/05 07:58:35;;;;;;;20.60;7.10;;;;;;;20.14;82.92;101032.11;109234;1254;74112;-50
2023/05/05 08:01:05;;;;;;;14.50;6.80;;;;;;;20.27;76.08;101008.48;109241;1254;65587;-53
2023/05/05 08:03:32;;;;;;;10.10;5.70;;;;;;;20.36;73.59;101013.83;109226;1256;73967;-51
2023/05/05 08:09:21;;;;;;;19.60;5.70;;;;;;;20.77;67.09;100967.91;102823;1290;600570;-51
2023/05/05 08:11:48;;;;;;;20.90;6.40;;;;;;;20.86;66.34;100988.14;105055;1264;62161;-51
2023/05/05 08:14:15;;;;;;;10.80;5.30;;;;;;;21.00;63.16;100954.25;105091;1269;61696;-51
2023/05/05 08:16:43;;;;;;;13.90;5.50;;;;;;;21.04;58.81;100856.15;105111;1269;73140;-50
2023/05/05 08:19:10;;;;;;;16.40;5.10;;;;;;;20.90;58.21;100904.98;105063;1264;66839;-51
2023/05/05 08:21:54;;;;;;;14.60;4.70;;;;;;;20.89;57.87;100914.83;104878;1269;238677;-52
2023/05/05 08:24:22;;;;;;;10.50;4.50;;;;;;;21.03;57.07;100898.98;104933;1266;62166;-52
2023/05/05 08:26:49;;;;;;;18.60;4.40;;;;;;;21.20;56.48;100895.61;105106;1264;63009;-54
2023/05/05 08:29:16;;;;;;;15.90;4.30;;;;;;;21.45;55.73;100879.30;105200;1266;74685;-52
2023/05/05 08:31:43;;;;;;;8.50;4.00;;;;;;;21.70;54.24;100820.78;105274;1262;67361;-51
2023/05/05 08:34:11;;;;;;;14.20;4.30;;;;;;;21.90;51.63;100697.18;105203;1266;75284;-51
2023/05/05 09:09:05;;;;;;;13.70;2.70;;;;;;;23.61;41.66;100182.77;102703;1295;601016;-51
2023/05/05 09:11:32;;;;;;;4.90;2.20;;;;;;;23.61;40.35;100053.34;105536;1261;61855;-51
2023/05/05 09:14:00;;;;;;;8.60;2.20;;;;;;;23.73;40.90;100113.48;105455;1263;61800;-51
2023/05/05 09:16:27;;;;;;;7.40;2.40;;;;;;;23.87;38.82;99919.52;105473;1257;73895;-51
2023/05/05 09:19:02;;;;;;;14.90;2.30;;;;;;;23.88;38.63;99905.20;105481;1257;66240;-52
2023/05/05 09:21:30;;;;;;;7.50;2.00;;;;;;;23.83;38.50;99915.76;105451;1260;74224;-51
2023/05/05 09:24:10;;;;;;;6.60;2.50;;;;;;;23.68;40.28;100117.23;105458;1257;283218;-52
2023/05/05 09:26:44;;;;;;;9.80;2.20;;;;;;;23.41;40.19;100162.67;105623;1258;61796;-51
2023/05/05 09:29:21;;;;;;;3.50;2.00;;;;;;;23.22;39.88;100129.39;105657;1260;75534;-52
2023/05/05 09:32:06;;;;;;;9.20;2.00;;;;;;;22.96;39.52;100109.67;105606;1260;66500;-51
2023/05/05 09:34:36;;;;;;;4.10;2.10;;;;;;;22.83;40.55;100230.97;105539;1261;75193;-51
2023/05/05 09:37:04;;;;;;;3.50;2.20;;;;;;;22.95;40.47;100255.98;105580;1262;62048;-51
2023/05/05 09:39:32;;;;;;;10.40;2.40;;;;;;;23.11;41.16;100319.52;105630;1260;62023;-51
2023/05/05 09:41:59;;;;;;;4.00;2.80;;;;;;;23.18;42.50;100461.80;105559;1256;75558;-51
2023/05/05 09:44:37;;;;;;;10.50;3.40;;;;;;;23.18;42.98;100526.67;105557;1260;66184;-51
2023/05/05 09:47:04;;;;;;;8.70;3.20;;;;;;;23.03;45.34;100778.68;105591;1256;75154;-50
2023/05/05 09:49:40;;;;;;;4.30;2.90;;;;;;;22.97;45.00;100737.13;105559;1260;61833;-54
2023/05/05 09:52:14;;;;;;;12.30;3.00;;;;;;;22.78;46.36;100872.28;105518;1257;62768;-52
2023/05/05 09:54:42;;;;;;;18.10;3.10;;;;;;;22.84;46.30;100851.83;105660;1256;75354;-52
2023/05/05 09:57:24;;;;;;;9.30;3.50;;;;;;;22.90;46.37;100844.92;105643;1256;66822;-51
2023/05/05 09:59:59;;;;;;;4.30;3.20;;;;;;;22.97;48.48;101025.55;105590;1259;75191;-51
2023/05/05 10:02:34;;;;;;;8.20;2.90;;;;;;;22.98;46.62;100832.64;105636;1257;62473;-52
2023/05/05 10:05:05;;;;;;;6.60;2.50;;;;;;;22.99;45.78;100751.98;105616;1255;62903;-52
2023/05/05 10:07:33;;;;;;;3.10;2.20;;;;;;;23.08;43.87;100533.91;105437;1257;74165;-52
2023/05/05 10:10:37;;;;;;;9.30;2.90;;;;;;;23.11;43.13;100466.14;102468;1291;603879;-52
2023/05/05 10:13:04;;;;;;;5.70;2.40;;;;;;;23.02;43.65;100529.91;104849;1272;61707;-51
2023/05/05 10:15:31;;;;;;;11.80;2.40;;;;;;;23.04;43.17;100520.09;104905;1266;61597;-51
2023/05/05 10:17:58;;;;;;;6.40;2.80;;;;;;;23.04;43.22;100517.64;104803;1267;72921;-51
2023/05/05 10:20:35;;;;;;;6.40;2.80;;;;;;;22.96;43.63;100554.46;104830;1270;66153;-50
2023/05/05 10:23:04;;;;;;;12.90;2.90;;;;;;;23.05;43.28;100539.23;104728;1270;218451;-51
2023/05/05 10:25:39;;;;;;;8.50;3.20;;;;;;;23.18;43.46;100544.63;105160;1263;62150;-52
2023/05/05 10:28:06;;;;;;;4.70;3.20;;;;;;;23.35;42.96;100486.09;105068;1263;61833;-51
2023/05/05 10:30:36;;;;;;;8.50;2.90;;;;;;;23.63;43.40;100531.65;105364;1259;73492;-51
2023/05/05 10:33:07;;;;;;;5.70;2.60;;;;;;;23.83;40.85;100254.98;105650;1257;66046;-52
2023/05/05 10:35:40;;;;;;;7.10;2.60;;;;;;;23.89;42.44;100428.99;105432;1261;73749;-52
2023/05/05 10:38:11;;;;;;;4.70;2.80;;;;;;;23.91;42.98;100510.78;105555;1262;61955;-51
2023/05/05 10:40:44;;;;;;;3.40;2.50;;;;;;;23.84;43.14;100519.40;105567;1256;61695;-52
2023/05/05 10:43:14;;;;;;;3.30;2.70;;;;;;;23.85;43.64;100584.52;105554;1261;72995;-51
2023/05/05 10:45:41;;;;;;;5.50;2.70;;;;;;;23.92;43.53;100565.15;105608;1261;66178;-53
2023/05/05 10:48:17;;;;;;;4.90;2.80;;;;;;;23.82;44.06;100640.40;105591;1257;74407;-52
2023/05/05 10:50:48;;;;;;;11.10;2.90;;;;;;;23.74;43.84;100601.33;105566;1261;61809;-52
2023/05/05 10:53:28;;;;;;;15.20;2.80;;;;;;;23.55;44.69;100709.02;105598;1256;61704;-52
2023/05/05 10:56:31;;;;;;;2.60;2.30;;;;;;;23.32;44.50;100693.30;105678;1259;73888;-52
2023/05/05 10:58:59;;;;;;;8.20;2.40;;;;;;;23.05;45.41;100800.55;105057;1267;66548;-52
2023/05/05 11:01:31;;;;;;;4.30;2.60;;;;;;;22.79;45.09;100765.80;105474;1258;74223;-52
2023/05/05 11:04:21;;;;;;;9.70;2.50;;;;;;;22.42;45.67;100821.73;105728;1257;61796;-52
2023/05/05 11:07:20;;;;;;;3.60;2.20;;;;;;;22.34;46.20;100875.98;105767;1254;61887;-52
2023/05/05 11:09:54;;;;;;;5.20;2.40;;;;;;;22.44;45.19;100771.55;105833;1254;76649;-53
2023/05/05 11:12:21;;;;;;;4.00;2.30;;;;;;;22.51;45.55;100796.73;105869;1257;66205;-52
2023/05/05 11:15:26;;;;;;;3.40;2.30;;;;;;;22.56;46.33;100877.71;105727;1254;74087;-54
2023/05/05 11:17:55;;;;;;;5.30;1.90;;;;;;;22.40;45.85;100813.61;105809;1257;61596;-53
2023/05/05 11:20:42;;;;;;;8.90;2.20;;;;;;;22.36;46.68;100880.30;105928;1251;61872;-51
2023/05/05 11:23:11;;;;;;;3.90;2.30;;;;;;;22.58;47.32;100940.52;105993;1251;74276;-52
2023/05/05 11:25:43;;;;;;;3.90;2.30;;;;;;;22.61;46.87;100864.18;106003;1255;64994;-52
2023/05/05 11:28:13;;;;;;;4.20;2.50;;;;;;;22.42;46.68;100858.66;105987;1255;74244;-52
2023/05/05 11:30:55;;;;;;;4.80;2.00;;;;;;;22.31;46.66;100855.98;105973;1254;61544;-51
2023/05/05 11:33:38;;;;;;;8.50;2.50;;;;;;;22.39;47.29;100896.98;105995;1251;61647;-53
2023/05/05 11:36:06;;;;;;;2.70;2.00;;;;;;;22.49;48.20;100970.44;105965;1251;74525;-54
2023/05/05 11:38:46;;;;;;;7.10;2.20;;;;;;;22.70;47.83;100927.30;105975;1254;66142;-53
2023/05/05 11:41:20;;;;;;;4.10;1.80;;;;;;;22.91;46.90;100819.73;106065;1252;73980;-52
2023/05/05 11:43:47;;;;;;;9.80;2.00;;;;;;;22.91;46.47;100782.64;105989;1255;61838;-51
2023/05/05 11:46:15;;;;;;;1.80;1.70;;;;;;;22.77;46.00;100744.61;105918;1252;61554;-52
2023/05/05 11:48:52;;;;;;;1.80;1.70;;;;;;;22.76;45.79;100727.65;106015;1251;73565;-52
2023/05/05 11:51:20;;;;;;;1.90;1.80;;;;;;;22.84;44.46;100585.15;106012;1255;65934;-52
2023/05/05 11:53:48;;;;;;;7.40;2.30;;;;;;;22.90;44.57;100599.21;106018;1252;73949;-52
2023/05/05 11:56:20;;;;;;;3.50;1.90;;;;;;;23.02;44.00;100551.59;106002;1253;60761;-52
2023/05/05 11:58:48;;;;;;;1.90;1.80;;;;;;;22.94;43.77;100506.57;106023;1250;60624;-52
2023/05/05 12:01:15;;;;;;;6.00;1.90;;;;;;;22.84;44.05;100584.64;106025;1256;74322;-52
2023/05/05 12:03:44;;;;;;;4.90;2.20;;;;;;;22.94;44.86;100641.48;105959;1255;66066;-52
2023/05/05 12:06:11;;;;;;;5.10;2.10;;;;;;;23.11;45.25;100694.76;106034;1251;74082;-51